createdAt,value
2023-04-25T00:02:09.838Z,99022.75
2023-04-25T00:04:36.737Z,99015.94
2023-04-25T00:07:03.837Z,99026.22
2023-04-25T00:09:30.791Z,99024.94
2023-04-25T00:11:57.486Z,99013.97
2023-04-25T00:14:24.100Z,99017.16
2023-04-25T00:16:50.727Z,99018.56
2023-04-25T00:19:17.342Z,99012.88
2023-04-25T00:21:44.105Z,99006.97
2023-04-25T00:24:10.736Z,99012.75
2023-04-25T00:26:37.562Z,99013.63
2023-04-25T00:29:04.350Z,99012.47
2023-04-25T00:31:31.722Z,99007.41
2023-04-25T00:33:58.333Z,99003.47
2023-04-25T00:36:24.946Z,99000.81
2023-04-25T00:38:51.647Z,98993.38
2023-04-25T00:41:18.292Z,99002.63
2023-04-25T00:43:47.195Z,99001.09
2023-04-25T00:46:14.127Z,98989.38
2023-04-25T00:48:40.871Z,98993.75
2023-04-25T00:51:07.751Z,98985.88
2023-04-25T00:53:34.498Z,98987.28
2023-04-25T00:56:01.232Z,98993.00
2023-04-25T00:58:28.033Z,98981.25
2023-04-25T01:00:54.879Z,98980.47
2023-04-25T01:03:21.990Z,98983.16
2023-04-25T01:05:49.253Z,98979.06
2023-04-25T01:08:15.993Z,98981.06
2023-04-25T01:10:42.852Z,98977.97
2023-04-25T01:13:10.000Z,98975.69
2023-04-25T01:15:36.764Z,98980.75
2023-04-25T01:18:04.737Z,98980.47
2023-04-25T01:20:33.273Z,98972.22
2023-04-25T01:23:00.210Z,98984.16
2023-04-25T01:25:27.191Z,98979.84
2023-04-25T01:27:54.114Z,98980.09
2023-04-25T01:30:21.179Z,98985.16
2023-04-25T01:32:48.726Z,98973.44
2023-04-25T01:35:15.387Z,98972.00
2023-04-25T01:37:43.923Z,98971.31
2023-04-25T01:40:11.730Z,98970.63
2023-04-25T01:42:43.860Z,98974.31
2023-04-25T01:45:11.498Z,98966.94
2023-04-25T01:47:39.730Z,98964.06
2023-04-25T01:50:08.231Z,98960.97
2023-04-25T01:52:35.126Z,98975.84
2023-04-25T01:55:03.393Z,98970.72
2023-04-25T01:57:30.147Z,98976.16
2023-04-25T02:00:00.987Z,98962.56
2023-04-25T02:02:27.917Z,98979.81
2023-04-25T02:04:54.684Z,98964.78
2023-04-25T02:07:21.909Z,98965.97
2023-04-25T02:09:48.784Z,98967.06
2023-04-25T02:12:15.439Z,98971.81
2023-04-25T02:14:42.178Z,98968.72
2023-04-25T02:17:09.031Z,98975.63
2023-04-25T02:19:36.172Z,98970.66
2023-04-25T02:22:02.901Z,98974.84
2023-04-25T02:24:29.604Z,98968.16
2023-04-25T02:26:56.181Z,98969.53
2023-04-25T02:29:23.954Z,98968.91
2023-04-25T02:31:50.896Z,98976.22
2023-04-25T02:34:17.780Z,98978.25
2023-04-25T02:36:44.536Z,98972.75
2023-04-25T02:39:11.192Z,98970.25
2023-04-25T02:41:40.963Z,98967.78
2023-04-25T02:44:07.576Z,98966.22
2023-04-25T02:46:39.599Z,98960.53
2023-04-25T02:49:07.457Z,98959.53
2023-04-25T02:51:34.126Z,98961.75
2023-04-25T02:54:00.818Z,98955.66
2023-04-25T02:56:27.594Z,98958.22
2023-04-25T02:58:54.961Z,98953.69
2023-04-25T03:01:21.752Z,98956.19
2023-04-25T03:03:48.647Z,98956.44
2023-04-25T03:06:15.544Z,98953.69
2023-04-25T03:08:42.251Z,98947.91
2023-04-25T03:11:08.908Z,98946.50
2023-04-25T03:13:35.586Z,98958.16
2023-04-25T03:16:02.338Z,98949.59
2023-04-25T03:18:29.016Z,98954.19
2023-04-25T03:20:55.809Z,98949.97
2023-04-25T03:23:22.516Z,98946.50
2023-04-25T03:25:49.202Z,98960.38
2023-04-25T03:28:16.048Z,98957.69
2023-04-25T03:30:42.653Z,98953.28
2023-04-25T03:33:09.261Z,98960.66
2023-04-25T03:35:35.953Z,98957.38
2023-04-25T03:38:02.586Z,98958.94
2023-04-25T03:40:29.214Z,98959.19
2023-04-25T03:42:55.817Z,98954.59
2023-04-25T03:45:22.533Z,98954.38
2023-04-25T03:47:49.192Z,98956.22
2023-04-25T03:50:15.852Z,98965.66
2023-04-25T03:52:42.463Z,98949.97
2023-04-25T03:55:09.720Z,98959.28
2023-04-25T03:57:36.285Z,98956.44
2023-04-25T04:00:03.351Z,98955.75
2023-04-25T04:02:30.136Z,98960.53
2023-04-25T04:04:57.236Z,98956.97
2023-04-25T04:07:26.851Z,98968.78
2023-04-25T04:09:53.507Z,98967.06
2023-04-25T04:12:20.203Z,98972.31
2023-04-25T04:14:46.795Z,98966.78
2023-04-25T04:17:16.097Z,98971.25
2023-04-25T04:19:42.692Z,98976.38
2023-04-25T04:22:09.346Z,98988.19
2023-04-25T04:24:36.139Z,98975.41
2023-04-25T04:27:02.876Z,98978.94
2023-04-25T04:29:29.618Z,98984.13
2023-04-25T04:31:56.629Z,98978.94
2023-04-25T04:34:23.483Z,98988.53
2023-04-25T04:36:50.190Z,98988.91
2023-04-25T04:39:16.980Z,98993.47
2023-04-25T04:41:43.619Z,98992.84
2023-04-25T04:44:10.258Z,98994.81
2023-04-25T04:46:36.937Z,98992.06
2023-04-25T04:49:03.598Z,98994.88
2023-04-25T04:51:30.296Z,98997.19
2023-04-25T04:53:57.040Z,98989.69
2023-04-25T04:56:23.686Z,98995.66
2023-04-25T04:58:50.305Z,98987.19
2023-04-25T05:01:17.010Z,98989.50
2023-04-25T05:03:43.863Z,98994.06
2023-04-25T05:06:10.941Z,98996.84
2023-04-25T05:08:37.838Z,98999.81
2023-04-25T05:11:04.621Z,98996.06
2023-04-25T05:13:31.554Z,98996.94
2023-04-25T05:15:58.416Z,98994.00
2023-04-25T05:18:25.121Z,99002.50
2023-04-25T05:20:51.709Z,98996.63
2023-04-25T05:23:18.510Z,98995.34
2023-04-25T05:25:45.204Z,98997.75
2023-04-25T05:28:14.083Z,98999.47
2023-04-25T05:30:40.713Z,99004.16
2023-04-25T05:33:07.350Z,99004.78
2023-04-25T05:35:34.131Z,99004.47
2023-04-25T05:38:00.830Z,99007.16
2023-04-25T05:40:27.563Z,98992.22
2023-04-25T05:42:54.204Z,98991.16
2023-04-25T05:45:20.902Z,99001.13
2023-04-25T05:47:47.604Z,98999.25
2023-04-25T05:50:14.219Z,98993.94
2023-04-25T05:52:40.906Z,98998.97
2023-04-25T05:55:07.873Z,99006.41
2023-04-25T05:57:34.647Z,99004.13
2023-04-25T06:00:01.595Z,98997.91
2023-04-25T06:02:28.394Z,99002.75
2023-04-25T06:04:55.693Z,99002.63
2023-04-25T06:07:22.482Z,99015.50
2023-04-25T06:09:50.272Z,99011.59
2023-04-25T06:12:16.894Z,99009.59
2023-04-25T06:14:43.540Z,99011.41
2023-04-25T06:17:10.357Z,99012.44
2023-04-25T06:19:37.420Z,99013.53
2023-04-25T06:22:04.243Z,99017.78
2023-04-25T06:24:30.872Z,99021.06
2023-04-25T06:26:57.536Z,99016.31
2023-04-25T06:29:24.257Z,99019.84
2023-04-25T06:31:50.998Z,99022.72
2023-04-25T06:34:17.740Z,99018.47
2023-04-25T06:36:44.499Z,99028.41
2023-04-25T06:39:12.019Z,99025.81
2023-04-25T06:41:38.685Z,99023.47
2023-04-25T06:44:05.362Z,99019.06
2023-04-25T06:46:32.075Z,99022.72
2023-04-25T06:48:58.704Z,99029.06
2023-04-25T06:51:25.503Z,99028.97
2023-04-25T06:53:52.211Z,99027.13
2023-04-25T06:56:18.896Z,99030.31
2023-04-25T06:58:45.598Z,99032.13
2023-04-25T07:01:12.312Z,99031.16
2023-04-25T07:03:39.136Z,99032.53
2023-04-25T07:06:06.053Z,99029.41
2023-04-25T07:08:32.768Z,99035.97
2023-04-25T07:10:59.360Z,99036.31
2023-04-25T07:13:25.985Z,99032.38
2023-04-25T07:15:52.663Z,99038.38
2023-04-25T07:18:19.330Z,99038.06
2023-04-25T07:20:45.981Z,99035.41
2023-04-25T07:23:12.670Z,99039.63
2023-04-25T07:25:39.323Z,99037.94
2023-04-25T07:28:05.955Z,99041.94
2023-04-25T07:30:32.614Z,99034.44
2023-04-25T07:32:59.268Z,99032.28
2023-04-25T07:35:25.956Z,99033.66
2023-04-25T07:37:52.723Z,99033.13
2023-04-25T07:40:19.555Z,99035.69
2023-04-25T07:42:46.189Z,99039.31
2023-04-25T07:45:12.828Z,99044.47
2023-04-25T07:47:39.510Z,99047.09
2023-04-25T07:50:06.759Z,99046.69
2023-04-25T07:52:33.487Z,99042.72
2023-04-25T07:55:00.109Z,99042.88
2023-04-25T07:57:27.006Z,99036.41
2023-04-25T07:59:53.630Z,99035.03
2023-04-25T08:02:20.285Z,99039.97
2023-04-25T08:04:47.099Z,99034.25
2023-04-25T08:07:13.959Z,99041.38
2023-04-25T08:09:40.721Z,99034.25
2023-04-25T08:12:07.425Z,99041.19
2023-04-25T08:14:34.053Z,99044.09
2023-04-25T08:17:00.736Z,99042.50
2023-04-25T08:19:27.369Z,99035.69
2023-04-25T08:21:53.996Z,99041.50
2023-04-25T08:24:20.727Z,99036.31
2023-04-25T08:26:47.529Z,99037.81
2023-04-25T08:29:14.292Z,99051.00
2023-04-25T08:31:41.047Z,99042.44
2023-04-25T08:34:07.726Z,99031.47
2023-04-25T08:36:39.675Z,99041.88
2023-04-25T08:39:07.172Z,99031.75
2023-04-25T08:41:33.797Z,99043.81
2023-04-25T08:44:00.802Z,99045.78
2023-04-25T08:46:28.312Z,99049.81
2023-04-25T08:49:02.155Z,99058.81
2023-04-25T08:51:33.387Z,99058.41
2023-04-25T08:56:48.896Z,99061.31
2023-04-25T08:59:15.806Z,99063.34
2023-04-25T09:01:42.581Z,99059.13
2023-04-25T09:04:09.334Z,99061.78
2023-04-25T09:06:37.021Z,99057.88
2023-04-25T09:09:05.741Z,99068.47
2023-04-25T09:11:33.677Z,99060.66
2023-04-25T09:14:16.198Z,99060.38
2023-04-25T09:17:00.711Z,99049.06
2023-04-25T09:19:39.557Z,99056.34
2023-04-25T09:22:08.637Z,99057.75
2023-04-25T09:24:45.170Z,99052.47
2023-04-25T09:27:14.868Z,99062.16
2023-04-25T09:29:42.160Z,99058.66
2023-04-25T09:32:21.122Z,99053.78
2023-04-25T09:34:50.553Z,99063.19
2023-04-25T09:37:24.907Z,99049.75
2023-04-25T09:39:56.853Z,99062.75
2023-04-25T09:42:25.393Z,99059.84
2023-04-25T09:44:56.680Z,99056.53
2023-04-25T09:47:25.645Z,99056.34
2023-04-25T09:49:53.519Z,99054.22
2023-04-25T09:52:26.103Z,99055.09
2023-04-25T09:54:53.460Z,99056.38
2023-04-25T09:57:21.119Z,99060.88
2023-04-25T09:59:49.831Z,99063.69
2023-04-25T10:02:22.236Z,99061.44
2023-04-25T10:04:51.400Z,99054.31
2023-04-25T10:07:24.057Z,99051.50
2023-04-25T10:09:56.382Z,99046.56
2023-04-25T10:12:23.112Z,99050.31
2023-04-25T10:14:50.137Z,99041.19
2023-04-25T10:17:18.487Z,99053.28
2023-04-25T10:19:45.787Z,99054.03
2023-04-25T10:22:27.541Z,99055.47
2023-04-25T10:24:54.788Z,99055.50
2023-04-25T10:27:21.572Z,99057.50
2023-04-25T10:30:17.077Z,99046.13
2023-04-25T10:32:44.696Z,99040.44
2023-04-25T10:35:26.784Z,99043.16
2023-04-25T10:38:00.374Z,99039.56
2023-04-25T10:40:27.888Z,99042.38
2023-04-25T10:42:55.321Z,99043.16
2023-04-25T10:45:22.137Z,99051.34
2023-04-25T10:47:49.110Z,99057.47
2023-04-25T10:50:16.677Z,99057.28
2023-04-25T10:52:43.585Z,99061.78
2023-04-25T10:55:10.423Z,99075.72
2023-04-25T10:57:45.222Z,99072.91
2023-04-25T11:00:15.485Z,99072.59
2023-04-25T11:02:48.107Z,99068.91
2023-04-25T11:05:36.318Z,99075.19
2023-04-25T11:08:12.463Z,99072.81
2023-04-25T11:10:41.160Z,99075.72
2023-04-25T11:13:07.847Z,99088.84
2023-04-25T11:15:34.555Z,99076.81
2023-04-25T11:18:02.003Z,99076.66
2023-04-25T11:20:28.958Z,99081.81
2023-04-25T11:22:58.765Z,99086.19
2023-04-25T11:25:25.508Z,99082.28
2023-04-25T11:27:57.687Z,99083.50
2023-04-25T11:30:26.841Z,99084.41
2023-04-25T11:32:54.016Z,99090.38
2023-04-25T11:35:21.344Z,99102.06
2023-04-25T11:37:48.098Z,99100.72
2023-04-25T11:40:15.111Z,99095.94
2023-04-25T11:42:46.890Z,99094.41
2023-04-25T11:45:14.444Z,99107.84
2023-04-25T11:47:41.258Z,99113.00
2023-04-25T11:50:09.498Z,99106.69
2023-04-25T11:52:36.852Z,99110.75
2023-04-25T11:55:09.916Z,99104.75
2023-04-25T11:57:42.312Z,99113.09
2023-04-25T12:00:12.969Z,99119.06
2023-04-25T12:02:57.556Z,99113.00
2023-04-25T12:05:34.278Z,99130.75
2023-04-25T12:08:12.377Z,99117.88
2023-04-25T12:10:40.561Z,99116.03
2023-04-25T12:13:25.001Z,99115.31
2023-04-25T12:15:51.889Z,99120.63
2023-04-25T12:18:22.255Z,99117.75
2023-04-25T12:20:48.910Z,99126.38
2023-04-25T12:23:15.688Z,99109.63
2023-04-25T12:25:44.696Z,99114.00
2023-04-25T12:28:23.040Z,99113.41
2023-04-25T12:31:01.662Z,99108.19
2023-04-25T12:33:37.100Z,99101.72
2023-04-25T12:36:06.580Z,99108.63
2023-04-25T12:38:38.210Z,99107.31
2023-04-25T12:41:04.899Z,99105.94
2023-04-25T12:43:31.533Z,99111.25
2023-04-25T12:45:58.234Z,99097.59
2023-04-25T12:48:25.568Z,99093.94
2023-04-25T12:50:53.051Z,99091.38
2023-04-25T12:53:21.555Z,99094.09
2023-04-25T12:55:48.796Z,99095.34
2023-04-25T12:58:16.091Z,99097.34
2023-04-25T13:00:42.911Z,99083.75
2023-04-25T13:03:10.076Z,99083.84
2023-04-25T13:05:36.865Z,99081.34
2023-04-25T13:08:04.101Z,99077.72
2023-04-25T13:10:31.024Z,99088.84
2023-04-25T13:12:57.668Z,99081.19
2023-04-25T13:15:24.366Z,99090.63
2023-04-25T13:17:51.107Z,99068.50
2023-04-25T13:20:17.794Z,99075.06
2023-04-25T13:22:44.469Z,99068.72
2023-04-25T13:25:11.120Z,99077.91
2023-04-25T13:27:38.517Z,99075.44
2023-04-25T13:30:05.975Z,99076.72
2023-04-25T13:32:32.663Z,99078.78
2023-04-25T13:34:59.293Z,99069.78
2023-04-25T13:37:25.907Z,99067.34
2023-04-25T13:39:52.850Z,99064.94
2023-04-25T13:42:19.765Z,99072.06
2023-04-25T13:44:46.420Z,99072.06
2023-04-25T13:47:13.313Z,99053.00
2023-04-25T13:49:39.982Z,99053.28
2023-04-25T13:52:06.693Z,99057.91
2023-04-25T13:54:33.351Z,99064.81
2023-04-25T13:57:00.167Z,99061.13
2023-04-25T13:59:27.981Z,99055.94
2023-04-25T14:01:54.912Z,99049.25
2023-04-25T14:04:21.759Z,99047.16
2023-04-25T14:06:48.426Z,99060.78
2023-04-25T14:09:15.052Z,99051.91
2023-04-25T14:11:41.727Z,99060.13
2023-04-25T14:14:08.430Z,99060.13
2023-04-25T14:16:35.301Z,99041.41
2023-04-25T14:19:02.289Z,99060.44
2023-04-25T14:21:30.737Z,99056.44
2023-04-25T14:23:57.381Z,99065.69
2023-04-25T14:26:24.036Z,99063.06
2023-04-25T14:28:52.168Z,99052.66
2023-04-25T14:31:18.801Z,99050.56
2023-04-25T14:33:45.586Z,99058.47
2023-04-25T14:36:12.232Z,99056.69
2023-04-25T14:38:38.890Z,99051.34
2023-04-25T14:41:05.576Z,99059.94
2023-04-25T14:43:32.210Z,99050.72
2023-04-25T14:45:59.054Z,99055.41
2023-04-25T14:48:25.937Z,99056.75
2023-04-25T14:50:52.714Z,99060.00
2023-04-25T14:53:19.395Z,99057.03
2023-04-25T14:55:46.003Z,99052.00
2023-04-25T14:58:12.869Z,99057.91
2023-04-25T15:00:39.872Z,99056.72
2023-04-25T15:03:06.656Z,99050.63
2023-04-25T15:05:33.501Z,99053.09
2023-04-25T15:08:00.161Z,99066.75
2023-04-25T15:10:27.108Z,99065.94
2023-04-25T15:12:53.776Z,99074.19
2023-04-25T15:17:52.118Z,99061.66
2023-04-25T15:20:18.848Z,99062.06
2023-04-25T15:22:45.754Z,99066.56
2023-04-25T15:25:12.930Z,99061.94
2023-04-25T15:27:40.154Z,99072.94
2023-04-25T15:30:07.927Z,99070.94
2023-04-25T15:32:35.438Z,99070.31
2023-04-25T15:35:05.352Z,99076.00
2023-04-25T15:37:32.452Z,99074.41
2023-04-25T15:40:15.128Z,99069.16
2023-04-25T15:42:44.496Z,99083.06
2023-04-25T15:45:11.840Z,99069.50
2023-04-25T15:47:40.206Z,99070.16
2023-04-25T15:50:09.108Z,99072.38
2023-04-25T15:52:37.509Z,99068.06
2023-04-25T15:55:05.626Z,99071.03
2023-04-25T15:57:34.618Z,99071.69
2023-04-25T16:00:05.823Z,99067.19
2023-04-25T16:02:32.708Z,99062.75
2023-04-25T16:04:59.631Z,99071.56
2023-04-25T16:07:26.415Z,99074.03
2023-04-25T16:09:53.019Z,99075.88
2023-04-25T16:12:19.661Z,99078.19
2023-04-25T16:14:46.307Z,99085.13
2023-04-25T16:17:12.940Z,99081.69
2023-04-25T16:19:39.587Z,99075.63
2023-04-25T16:22:06.301Z,99081.16
2023-04-25T16:24:32.893Z,99084.47
2023-04-25T16:26:59.558Z,99090.41
2023-04-25T16:29:26.166Z,99092.88
2023-04-25T16:31:52.930Z,99094.25
2023-04-25T16:34:19.959Z,99092.53
2023-04-25T16:36:46.631Z,99095.28
2023-04-25T16:39:13.225Z,99096.25
2023-04-25T16:41:39.833Z,99094.03
2023-04-25T16:44:06.499Z,99099.44
2023-04-25T16:46:33.236Z,99100.81
2023-04-25T16:48:59.956Z,99101.34
2023-04-25T16:51:26.945Z,99098.25
2023-04-25T16:53:53.974Z,99099.63
2023-04-25T16:56:20.780Z,99093.13
2023-04-25T16:58:47.421Z,99105.69
2023-04-25T17:01:14.052Z,99108.50
2023-04-25T17:03:40.877Z,99104.44
2023-04-25T17:06:07.657Z,99114.59
2023-04-25T17:08:34.259Z,99112.50
2023-04-25T17:11:01.351Z,99114.91
2023-04-25T17:13:30.945Z,99121.34
2023-04-25T17:15:58.380Z,99130.28
2023-04-25T17:18:25.773Z,99123.66
2023-04-25T17:20:52.634Z,99132.34
2023-04-25T17:23:19.384Z,99129.06
2023-04-25T17:25:46.079Z,99136.69
2023-04-25T17:28:12.965Z,99135.44
2023-04-25T17:30:39.956Z,99133.78
2023-04-25T17:33:08.875Z,99141.22
2023-04-25T17:35:35.576Z,99142.44
2023-04-25T17:38:02.852Z,99142.84
2023-04-25T17:40:29.523Z,99136.94
2023-04-25T17:42:56.140Z,99153.22
2023-04-25T17:45:22.931Z,99150.16
2023-04-25T17:47:49.694Z,99152.47
2023-04-25T17:50:16.366Z,99162.22
2023-04-25T17:52:43.821Z,99156.44
2023-04-25T17:55:11.047Z,99157.53
2023-04-25T17:57:37.665Z,99167.91
2023-04-25T18:00:06.017Z,99164.84
2023-04-25T18:02:32.977Z,99172.28
2023-04-25T18:04:59.984Z,99175.25
2023-04-25T18:07:26.697Z,99170.69
2023-04-25T18:09:53.399Z,99180.22
2023-04-25T18:12:20.358Z,99181.50
2023-04-25T18:14:49.473Z,99184.91
2023-04-25T18:17:16.230Z,99192.06
2023-04-25T18:19:42.952Z,99189.59
2023-04-25T18:22:09.683Z,99194.06
2023-04-25T18:24:36.360Z,99203.63
2023-04-25T18:27:03.107Z,99202.47
2023-04-25T18:29:33.774Z,99206.22
2023-04-25T18:32:01.644Z,99216.09
2023-04-25T18:34:28.377Z,99217.09
2023-04-25T18:36:55.022Z,99220.03
2023-04-25T18:39:23.118Z,99226.91
2023-04-25T18:41:58.014Z,99219.06
2023-04-25T18:44:26.580Z,99222.69
2023-04-25T18:46:53.339Z,99231.59
2023-04-25T18:49:19.977Z,99239.41
2023-04-25T18:51:46.927Z,99242.97
2023-04-25T18:54:13.592Z,99248.25
2023-04-25T18:56:40.259Z,99250.44
2023-04-25T18:59:07.258Z,99255.19
2023-04-25T19:01:34.373Z,99246.63
2023-04-25T19:04:02.270Z,99243.59
2023-04-25T19:06:30.980Z,99240.00
2023-04-25T19:08:57.635Z,99242.97
2023-04-25T19:11:24.676Z,99246.03
2023-04-25T19:13:51.849Z,99243.47
2023-04-25T19:16:19.088Z,99255.84
2023-04-25T19:18:46.469Z,99251.50
2023-04-25T19:21:13.215Z,99252.84
2023-04-25T19:23:40.150Z,99248.72
2023-04-25T19:26:06.963Z,99256.72
2023-04-25T19:28:33.888Z,99251.81
2023-04-25T19:31:00.625Z,99254.88
2023-04-25T19:33:27.356Z,99252.88
2023-04-25T19:35:54.174Z,99258.06
2023-04-25T19:38:23.554Z,99263.31
2023-04-25T19:40:50.324Z,99266.22
2023-04-25T19:43:17.216Z,99261.03
2023-04-25T19:45:43.895Z,99268.47
2023-04-25T19:48:10.567Z,99258.06
2023-04-25T19:50:37.250Z,99256.06
2023-04-25T19:53:03.913Z,99260.25
2023-04-25T19:55:30.520Z,99256.59
2023-04-25T19:57:57.129Z,99255.16
2023-04-25T20:00:23.975Z,99254.03
2023-04-25T20:02:50.785Z,99250.78
2023-04-25T20:05:17.765Z,99242.97
2023-04-25T20:07:44.431Z,99251.00
2023-04-25T20:10:12.172Z,99249.97
2023-04-25T20:12:42.000Z,99256.84
2023-04-25T20:15:09.595Z,99254.44
2023-04-25T20:17:36.253Z,99252.72
2023-04-25T20:20:03.156Z,99248.22
2023-04-25T20:22:30.151Z,99246.16
2023-04-25T20:24:56.800Z,99254.81
2023-04-25T20:27:23.434Z,99257.78
2023-04-25T20:29:50.187Z,99245.69
2023-04-25T20:32:16.841Z,99252.66
2023-04-25T20:34:43.478Z,99257.66
2023-04-25T20:37:10.149Z,99258.19
2023-04-25T20:39:36.946Z,99258.03
2023-04-25T20:42:03.718Z,99266.13
2023-04-25T20:44:30.413Z,99271.44
2023-04-25T20:46:57.073Z,99270.63
2023-04-25T20:49:23.727Z,99270.19
2023-04-25T20:51:50.401Z,99279.81
2023-04-25T20:54:17.015Z,99279.75
2023-04-25T20:56:43.660Z,99279.16
2023-04-25T20:59:10.386Z,99279.44
2023-04-25T21:01:37.237Z,99287.69
2023-04-25T21:04:04.115Z,99285.84
2023-04-25T21:06:30.874Z,99297.34
2023-04-25T21:08:57.564Z,99297.72
2023-04-25T21:11:24.422Z,99301.75
2023-04-25T21:13:51.221Z,99314.22
2023-04-25T21:16:17.884Z,99311.16
2023-04-25T21:18:44.575Z,99310.84
2023-04-25T21:21:11.457Z,99318.88
2023-04-25T21:23:38.124Z,99313.22
2023-04-25T21:26:04.842Z,99310.81
2023-04-25T21:28:31.549Z,99317.56
2023-04-25T21:30:58.438Z,99312.13
2023-04-25T21:33:25.050Z,99311.44
2023-04-25T21:35:52.033Z,99304.94
2023-04-25T21:38:18.860Z,99309.94
2023-04-25T21:40:45.512Z,99311.56
2023-04-25T21:43:12.107Z,99322.31
2023-04-25T21:45:56.944Z,99318.56
2023-04-25T21:48:25.417Z,99323.53
2023-04-25T21:50:52.033Z,99315.03
2023-04-25T21:53:18.681Z,99319.50
2023-04-25T21:55:45.412Z,99323.63
2023-04-25T21:58:12.049Z,99333.22
2023-04-25T22:00:38.754Z,99329.38
2023-04-25T22:03:05.490Z,99327.66
2023-04-25T22:05:32.202Z,99330.34
2023-04-25T22:07:58.853Z,99334.25
2023-04-25T22:10:26.064Z,99335.75
2023-04-25T22:12:52.880Z,99339.25
2023-04-25T22:15:21.501Z,99334.59
2023-04-25T22:17:48.190Z,99340.66
2023-04-25T22:20:14.870Z,99344.06
2023-04-25T22:22:41.783Z,99341.50
2023-04-25T22:25:08.977Z,99352.97
2023-04-25T22:27:35.674Z,99355.66
2023-04-25T22:30:02.304Z,99348.69
2023-04-25T22:32:29.188Z,99349.53
2023-04-25T22:34:55.964Z,99356.59
2023-04-25T22:37:22.593Z,99359.38
2023-04-25T22:39:49.234Z,99353.53
2023-04-25T22:42:15.950Z,99354.84
2023-04-25T22:44:42.557Z,99363.53
2023-04-25T22:47:09.278Z,99356.06
2023-04-25T22:49:35.922Z,99354.50
2023-04-25T22:52:02.544Z,99352.56
2023-04-25T22:54:29.174Z,99356.28
2023-04-25T22:56:55.805Z,99364.50
2023-04-25T22:59:22.446Z,99362.81
2023-04-25T23:01:49.178Z,99361.63
2023-04-25T23:04:16.073Z,99372.41
2023-04-25T23:06:42.824Z,99370.31
2023-04-25T23:09:09.420Z,99363.63
2023-04-25T23:11:36.018Z,99371.84
2023-04-25T23:14:02.664Z,99373.00
2023-04-25T23:16:29.322Z,99363.63
2023-04-25T23:18:55.959Z,99365.97
2023-04-25T23:21:22.618Z,99375.56
2023-04-25T23:23:49.379Z,99376.25
2023-04-25T23:26:16.118Z,99375.63
2023-04-25T23:28:42.777Z,99375.00
2023-04-25T23:31:10.594Z,99379.53
2023-04-25T23:33:37.522Z,99384.06
2023-04-25T23:36:04.474Z,99378.47
2023-04-25T23:38:32.144Z,99383.22
2023-04-25T23:40:58.757Z,99379.19
2023-04-25T23:43:25.379Z,99388.59
2023-04-25T23:45:52.150Z,99388.06
2023-04-25T23:48:18.805Z,99381.59
2023-04-25T23:50:45.437Z,99377.56
2023-04-25T23:53:12.144Z,99386.50
2023-04-25T23:55:38.965Z,99384.84
2023-04-25T23:58:05.660Z,99387.66
